Time;durP1;ratioP1;P1;durP2;ratioP2;P2;SDS_P1;SDS_P2;PMS_P1;PMS_P2;Temp;Humidity;BMP_temperature;BMP_pressure;BME280_temperature;BME280_humidity;BME280_pressure;Samples;Min_cycle;Max_cycle;Signal;HPM_P1;HPM_P2
2023/09/24 00:00:59;;;;;;;0.10;0.10;;;;;;;9.19;100.00;97228.06;4935198;28;20063;-84
2023/09/24 00:03:46;;;;;;;0.10;0.10;;;;;;;9.33;100.00;97236.72;4934141;28;20713;-83
2023/09/24 00:06:35;;;;;;;0.00;0.00;;;;;;;9.34;100.00;97245.56;4936091;28;20593;-84
2023/09/24 00:09:20;;;;;;;0.10;0.10;;;;;;;9.35;100.00;97237.34;4933599;28;20040;-83
2023/09/24 00:12:07;;;;;;;0.10;0.10;;;;;;;9.35;100.00;97247.22;4932927;28;20054;-84
2023/09/24 00:14:53;;;;;;;0.03;0.03;;;;;;;9.20;100.00;97239.56;4934133;28;20154;-83
2023/09/24 00:17:39;;;;;;;0.10;0.10;;;;;;;9.08;100.00;97252.81;4934116;28;20085;-84
2023/09/24 00:20:25;;;;;;;0.10;0.10;;;;;;;9.07;100.00;97251.16;4933590;28;20609;-83
2023/09/24 00:23:11;;;;;;;0.10;0.10;;;;;;;9.09;100.00;97251.75;4935476;28;20043;-83
2023/09/24 00:25:57;;;;;;;0.10;0.10;;;;;;;8.81;100.00;97254.91;4935179;28;20051;-84
2023/09/24 00:28:43;;;;;;;0.10;0.10;;;;;;;8.67;100.00;97257.88;4933486;28;20095;-83
2023/09/24 00:31:30;;;;;;;0.10;0.10;;;;;;;8.65;100.00;97269.59;4935468;28;20051;-83
2023/09/24 00:34:17;;;;;;;0.10;0.10;;;;;;;8.86;100.00;97256.91;4921124;28;20048;-83
2023/09/24 00:37:03;;;;;;;0.10;0.10;;;;;;;8.69;100.00;97255.81;4934418;28;20047;-85
2023/09/24 00:39:48;;;;;;;0.10;0.10;;;;;;;8.72;100.00;97260.72;4937532;28;20051;-85
2023/09/24 00:42:34;;;;;;;0.10;0.10;;;;;;;8.71;100.00;97259.06;4934601;28;20051;-85
2023/09/24 00:45:25;;;;;;;0.10;0.10;;;;;;;8.80;100.00;97266.59;4937368;28;20720;-86
2023/09/24 00:48:11;;;;;;;0.10;0.10;;;;;;;8.87;100.00;97263.84;4938820;28;20047;-83
2023/09/24 00:51:00;;;;;;;0.10;0.10;;;;;;;8.87;100.00;97253.19;4936528;28;20585;-84
2023/09/24 00:53:47;;;;;;;0.10;0.10;;;;;;;8.94;100.00;97260.09;4938531;28;20600;-83
2023/09/24 00:56:34;;;;;;;0.10;0.10;;;;;;;8.59;100.00;97258.97;4924819;29;20101;-83
2023/09/24 00:59:20;;;;;;;0.10;0.10;;;;;;;8.68;100.00;97263.00;4935323;28;20074;-84
2023/09/24 01:02:07;;;;;;;0.00;0.00;;;;;;;8.75;100.00;97258.44;4938528;28;20165;-83
2023/09/24 01:04:53;;;;;;;0.10;0.10;;;;;;;8.80;100.00;97258.59;4940834;28;20695;-83
2023/09/24 01:07:41;;;;;;;0.10;0.10;;;;;;;8.80;100.00;97269.28;4939941;28;20326;-83
2023/09/24 01:10:27;;;;;;;0.10;0.10;;;;;;;8.78;100.00;97270.50;4937967;28;20074;-82
2023/09/24 01:13:15;;;;;;;0.10;0.10;;;;;;;8.79;100.00;97280.97;4909427;28;20631;-82
2023/09/24 01:16:01;;;;;;;0.10;0.10;;;;;;;8.76;100.00;97273.41;4933982;28;20270;-82
2023/09/24 01:18:47;;;;;;;0.10;0.10;;;;;;;8.65;100.00;97268.78;4936117;28;20419;-84
2023/09/24 01:21:36;;;;;;;0.10;0.10;;;;;;;8.50;100.00;97274.41;4938541;28;20406;-84
2023/09/24 01:24:27;;;;;;;0.13;0.13;;;;;;;8.49;100.00;97275.44;4938013;28;20047;-84
2023/09/24 01:27:13;;;;;;;0.10;0.10;;;;;;;8.33;100.00;97284.75;4936965;28;20051;-84
2023/09/24 01:29:59;;;;;;;0.10;0.10;;;;;;;8.33;100.00;97276.75;4936884;28;20047;-85
2023/09/24 01:32:46;;;;;;;0.10;0.10;;;;;;;8.33;100.00;97290.09;4935655;28;20514;-85
2023/09/24 01:35:35;;;;;;;0.10;0.10;;;;;;;8.40;100.00;97292.72;4937058;28;20482;-84
2023/09/24 01:38:21;;;;;;;0.10;0.10;;;;;;;8.38;100.00;97286.78;4937528;28;20107;-85
2023/09/24 01:41:10;;;;;;;0.10;0.10;;;;;;;8.31;100.00;97288.63;4937299;28;20213;-85
2023/09/24 01:43:57;;;;;;;0.10;0.10;;;;;;;8.21;100.00;97298.97;4937134;28;20511;-84
2023/09/24 01:46:46;;;;;;;0.10;0.10;;;;;;;8.09;100.00;97293.47;4935919;28;20137;-86
2023/09/24 01:49:34;;;;;;;0.10;0.10;;;;;;;8.10;100.00;97290.59;4936450;28;20170;-84
2023/09/24 01:52:20;;;;;;;0.10;0.10;;;;;;;8.00;100.00;97282.22;4919415;28;20229;-84
2023/09/24 01:55:07;;;;;;;0.10;0.10;;;;;;;8.08;100.00;97289.97;4937312;28;20114;-85
2023/09/24 01:57:53;;;;;;;0.05;0.05;;;;;;;8.04;100.00;97291.44;4936275;28;20039;-83
2023/09/24 02:00:42;;;;;;;0.00;0.00;;;;;;;8.01;100.00;97301.69;4921849;28;20094;-83
2023/09/24 02:03:29;;;;;;;0.10;0.10;;;;;;;8.07;100.00;97306.19;4935256;28;20329;-84
2023/09/24 02:06:15;;;;;;;0.10;0.10;;;;;;;8.05;100.00;97298.41;4936331;28;20075;-84
2023/09/24 02:09:02;;;;;;;0.10;0.10;;;;;;;8.01;100.00;97307.84;4922563;28;20043;-83
2023/09/24 02:11:52;;;;;;;0.10;0.10;;;;;;;8.08;100.00;97307.81;4934591;28;20055;-83
2023/09/24 02:14:39;;;;;;;0.10;0.10;;;;;;;8.12;100.00;97309.06;4924059;29;20047;-85
2023/09/24 02:17:25;;;;;;;0.13;0.10;;;;;;;8.14;100.00;97317.66;4935267;28;20568;-85
2023/09/24 02:23:17;;;;;;;0.10;0.10;;;;;;;8.08;100.00;97308.63;4920934;28;20035;-85
2023/09/24 02:26:08;;;;;;;0.10;0.10;;;;;;;8.12;100.00;97311.72;4935861;28;20049;-84
2023/09/24 02:28:54;;;;;;;0.10;0.10;;;;;;;8.09;100.00;97310.31;4934735;28;20525;-84
2023/09/24 02:31:40;;;;;;;0.10;0.10;;;;;;;8.04;100.00;97326.09;4922479;28;20061;-84
2023/09/24 02:34:26;;;;;;;0.10;0.10;;;;;;;8.02;100.00;97324.69;4934847;28;20047;-84
2023/09/24 02:37:12;;;;;;;0.10;0.10;;;;;;;8.03;100.00;97328.97;4921074;28;20498;-85
2023/09/24 02:39:58;;;;;;;0.10;0.10;;;;;;;7.97;100.00;97327.16;4934755;28;20041;-86
2023/09/24 02:42:46;;;;;;;0.10;0.10;;;;;;;7.90;100.00;97319.19;4934301;28;20340;-84
2023/09/24 02:45:33;;;;;;;0.13;0.13;;;;;;;7.83;100.00;97329.84;4922912;28;20329;-85
2023/09/24 02:48:19;;;;;;;0.10;0.10;;;;;;;7.78;100.00;97328.84;4934663;28;20126;-84
2023/09/24 02:51:08;;;;;;;0.10;0.10;;;;;;;7.71;100.00;97328.06;4934003;28;20043;-84
2023/09/24 02:53:54;;;;;;;0.10;0.10;;;;;;;7.69;100.00;97324.78;4920626;28;20571;-85
2023/09/24 02:56:40;;;;;;;0.10;0.10;;;;;;;7.63;100.00;97328.28;4936254;28;20058;-84
2023/09/24 02:59:26;;;;;;;0.10;0.10;;;;;;;7.63;100.00;97330.94;4934609;28;20039;-86
2023/09/24 03:02:12;;;;;;;0.10;0.10;;;;;;;7.66;100.00;97335.84;4932430;28;20142;-84
2023/09/24 03:04:58;;;;;;;0.10;0.10;;;;;;;7.72;100.00;97333.19;4919889;28;20054;-85
2023/09/24 03:07:44;;;;;;;0.10;0.10;;;;;;;7.71;100.00;97338.72;4932997;28;20043;-84
2023/09/24 03:10:34;;;;;;;0.10;0.10;;;;;;;7.46;100.00;97341.19;4935352;28;20118;-84
2023/09/24 03:13:20;;;;;;;0.10;0.10;;;;;;;7.32;100.00;97356.41;4935558;28;20138;-83
2023/09/24 03:16:07;;;;;;;0.10;0.10;;;;;;;7.33;100.00;97355.38;4935503;28;20145;-85
2023/09/24 03:18:53;;;;;;;0.10;0.10;;;;;;;7.34;100.00;97358.84;4932922;28;20657;-84
2023/09/24 03:21:39;;;;;;;0.10;0.10;;;;;;;7.26;100.00;97358.03;4933594;28;20423;-85
2023/09/24 03:24:24;;;;;;;0.10;0.10;;;;;;;7.34;100.00;97367.66;4934437;28;20047;-86
2023/09/24 03:27:11;;;;;;;0.10;0.10;;;;;;;7.20;100.00;97353.53;4934247;28;20050;-83
2023/09/24 03:29:58;;;;;;;0.10;0.10;;;;;;;7.10;100.00;97362.94;4908850;28;20087;-85
2023/09/24 03:32:52;;;;;;;0.10;0.10;;;;;;;6.96;100.00;97362.94;4934469;28;20054;-85
2023/09/24 03:35:38;;;;;;;0.10;0.10;;;;;;;6.90;100.00;97360.25;4936129;28;20039;-85
2023/09/24 03:38:24;;;;;;;0.10;0.10;;;;;;;6.80;100.00;97358.00;4935527;28;20046;-85
2023/09/24 03:41:10;;;;;;;0.10;0.10;;;;;;;6.85;100.00;97357.41;4934240;28;20074;-85
2023/09/24 03:43:56;;;;;;;0.10;0.10;;;;;;;7.03;100.00;97362.94;4934357;28;20053;-84
2023/09/24 03:46:42;;;;;;;0.10;0.10;;;;;;;7.17;100.00;97371.75;4933517;28;20631;-86
2023/09/24 03:49:28;;;;;;;0.10;0.10;;;;;;;7.24;100.00;97368.06;4931580;28;20047;-86
2023/09/24 03:52:14;;;;;;;0.10;0.10;;;;;;;6.99;100.00;97372.34;4920557;28;20108;-84
2023/09/24 03:55:00;;;;;;;0.10;0.10;;;;;;;7.01;100.00;97372.16;4934990;28;20169;-85
2023/09/24 03:57:47;;;;;;;0.10;0.10;;;;;;;6.92;100.00;97364.34;4935513;28;20043;-84
2023/09/24 04:00:33;;;;;;;0.10;0.10;;;;;;;6.94;100.00;97369.50;4919071;28;20387;-84
2023/09/24 04:03:19;;;;;;;0.10;0.10;;;;;;;6.95;100.00;97371.94;4933926;28;20510;-85
2023/09/24 04:06:10;;;;;;;0.10;0.10;;;;;;;6.97;100.00;97377.88;4922247;28;20082;-85
2023/09/24 04:08:55;;;;;;;0.10;0.10;;;;;;;6.86;100.00;97377.66;4922636;28;20058;-85
2023/09/24 04:11:41;;;;;;;0.10;0.10;;;;;;;6.89;100.00;97371.94;4936427;28;20044;-84
2023/09/24 04:14:27;;;;;;;0.10;0.10;;;;;;;6.85;100.00;97368.06;4939046;28;20077;-85
2023/09/24 04:17:13;;;;;;;0.10;0.10;;;;;;;6.83;100.00;97378.88;4940012;28;20486;-85
2023/09/24 04:19:59;;;;;;;0.10;0.10;;;;;;;6.84;100.00;97385.00;4941796;28;20058;-86
2023/09/24 04:22:45;;;;;;;0.10;0.10;;;;;;;6.80;100.00;97384.59;4945663;28;20055;-84
2023/09/24 04:25:31;;;;;;;0.10;0.10;;;;;;;6.75;100.00;97391.53;4945997;28;20043;-85
2023/09/24 04:28:19;;;;;;;0.10;0.10;;;;;;;6.74;100.00;97388.06;4941902;28;20043;-84
2023/09/24 04:31:05;;;;;;;0.10;0.10;;;;;;;6.80;100.00;97389.94;4940261;28;20047;-85
2023/09/24 04:33:51;;;;;;;0.10;0.10;;;;;;;6.80;100.00;97387.28;4939380;28;20414;-85
2023/09/24 04:36:37;;;;;;;0.10;0.10;;;;;;;6.72;100.00;97392.78;4941521;28;20122;-84
2023/09/24 04:39:24;;;;;;;0.10;0.10;;;;;;;6.74;100.00;97400.53;4938029;28;20048;-85
2023/09/24 04:42:11;;;;;;;0.10;0.10;;;;;;;6.74;100.00;97411.19;4938233;28;20680;-85
2023/09/24 04:44:57;;;;;;;0.10;0.10;;;;;;;6.61;100.00;97409.31;4936412;28;20070;-84
2023/09/24 04:47:43;;;;;;;0.10;0.10;;;;;;;6.56;100.00;97411.75;4938054;28;20245;-84
2023/09/24 04:50:29;;;;;;;0.10;0.10;;;;;;;6.64;100.00;97423.03;4939263;28;20481;-84
2023/09/24 04:53:15;;;;;;;0.03;0.03;;;;;;;6.50;100.00;97426.66;4938749;28;20502;-85
2023/09/24 04:56:06;;;;;;;0.10;0.10;;;;;;;6.46;100.00;97427.25;4938470;28;20047;-84
2023/09/24 04:58:52;;;;;;;0.10;0.10;;;;;;;6.34;100.00;97430.50;4937829;28;20043;-84
2023/09/24 05:01:38;;;;;;;0.10;0.10;;;;;;;6.34;100.00;97437.66;4938331;28;20055;-85
2023/09/24 05:04:25;;;;;;;0.10;0.10;;;;;;;6.34;100.00;97446.44;4939408;28;20047;-85
2023/09/24 05:07:11;;;;;;;0.10;0.10;;;;;;;6.33;100.00;97449.31;4937611;28;20066;-82
2023/09/24 05:09:57;;;;;;;0.10;0.10;;;;;;;6.37;100.00;97450.53;4938509;28;20554;-85
2023/09/24 05:12:43;;;;;;;0.10;0.10;;;;;;;6.36;100.00;97454.22;4938197;28;20384;-84
2023/09/24 05:15:29;;;;;;;0.10;0.10;;;;;;;6.31;100.00;97460.13;4939270;28;20356;-85
2023/09/24 05:18:15;;;;;;;0.10;0.10;;;;;;;6.34;100.00;97457.06;4938745;28;20695;-84
2023/09/24 05:21:03;;;;;;;0.10;0.10;;;;;;;6.29;100.00;97464.81;4936984;28;20487;-85
2023/09/24 05:23:49;;;;;;;0.10;0.10;;;;;;;6.33;100.00;97468.72;4936856;28;20039;-85
2023/09/24 05:26:35;;;;;;;0.10;0.10;;;;;;;6.29;100.00;97456.81;4940120;28;20043;-85
2023/09/24 05:29:20;;;;;;;0.10;0.10;;;;;;;6.27;100.00;97461.53;4938231;28;20074;-86
2023/09/24 05:32:06;;;;;;;0.10;0.10;;;;;;;6.36;100.00;97464.84;4939267;28;20070;-86
2023/09/24 05:34:55;;;;;;;0.10;0.10;;;;;;;6.35;100.00;97477.31;4937261;28;20051;-86
2023/09/24 05:37:41;;;;;;;0.10;0.10;;;;;;;6.20;100.00;97473.16;4938123;28;20399;-86
2023/09/24 05:40:26;;;;;;;0.10;0.10;;;;;;;6.15;100.00;97479.06;4938536;28;20426;-85
2023/09/24 05:43:12;;;;;;;0.10;0.10;;;;;;;6.11;100.00;97480.47;4938173;28;20538;-86
2023/09/24 05:46:01;;;;;;;0.10;0.10;;;;;;;6.19;100.00;97485.63;4939112;28;20698;-87
2023/09/24 05:48:47;;;;;;;0.10;0.10;;;;;;;6.32;100.00;97490.19;4936661;28;20403;-86
2023/09/24 05:51:33;;;;;;;0.10;0.10;;;;;;;6.30;100.00;97493.06;4939826;28;20043;-85
2023/09/24 05:54:18;;;;;;;0.10;0.10;;;;;;;6.36;100.00;97494.91;4938071;28;20461;-85
2023/09/24 05:57:04;;;;;;;0.10;0.10;;;;;;;6.47;100.00;97503.38;4939121;28;20386;-85
2023/09/24 05:59:51;;;;;;;0.10;0.10;;;;;;;6.46;100.00;97510.53;4936947;28;20541;-86
2023/09/24 06:02:38;;;;;;;0.10;0.10;;;;;;;6.50;100.00;97517.06;4937089;28;20110;-86
2023/09/24 06:05:24;;;;;;;0.10;0.10;;;;;;;6.64;100.00;97513.47;4937631;28;20047;-86
2023/09/24 06:08:10;;;;;;;0.10;0.10;;;;;;;6.76;100.00;97515.53;4937806;28;20129;-82
2023/09/24 06:10:56;;;;;;;0.10;0.10;;;;;;;6.91;100.00;97530.34;4938990;28;20089;-84
2023/09/24 06:13:42;;;;;;;0.10;0.10;;;;;;;7.03;100.00;97524.47;4935827;28;20031;-84
2023/09/24 06:16:28;;;;;;;0.10;0.10;;;;;;;7.18;100.00;97531.25;4937581;28;20286;-84
2023/09/24 06:19:14;;;;;;;0.10;0.10;;;;;;;7.25;100.00;97533.94;4937190;28;20047;-83
2023/09/24 06:21:59;;;;;;;0.15;0.15;;;;;;;7.33;100.00;97541.75;4935585;28;20426;-84
2023/09/24 06:24:45;;;;;;;0.10;0.10;;;;;;;7.41;100.00;97548.72;4938483;28;20115;-84
2023/09/24 06:27:31;;;;;;;0.00;0.00;;;;;;;7.48;100.00;97549.56;4937423;28;20552;-84
2023/09/24 06:30:17;;;;;;;0.10;0.10;;;;;;;7.60;100.00;97550.59;4935420;28;20035;-84
2023/09/24 06:33:06;;;;;;;0.10;0.10;;;;;;;7.67;100.00;97545.28;4936825;28;20553;-84
2023/09/24 06:35:52;;;;;;;0.10;0.10;;;;;;;7.75;100.00;97558.41;4937578;28;20546;-86
2023/09/24 06:38:38;;;;;;;0.10;0.10;;;;;;;7.91;100.00;97558.00;4933850;28;20077;-86
2023/09/24 06:41:24;;;;;;;0.10;0.10;;;;;;;8.03;100.00;97556.38;4936558;28;20105;-85
2023/09/24 06:44:11;;;;;;;0.10;0.10;;;;;;;8.07;100.00;97560.25;4936869;28;20046;-84
2023/09/24 06:46:57;;;;;;;0.10;0.10;;;;;;;8.17;100.00;97569.69;4936345;28;20043;-85
2023/09/24 06:49:42;;;;;;;0.10;0.10;;;;;;;8.28;100.00;97575.22;4935148;28;20265;-85
2023/09/24 06:52:31;;;;;;;0.10;0.10;;;;;;;8.35;100.00;97573.41;4936531;28;20510;-85
2023/09/24 06:55:17;;;;;;;0.10;0.10;;;;;;;8.49;100.00;97581.41;4938037;28;20126;-85
2023/09/24 06:58:03;;;;;;;0.10;0.10;;;;;;;8.58;100.00;97580.97;4936823;28;20050;-85
2023/09/24 07:00:49;;;;;;;0.10;0.10;;;;;;;8.71;100.00;97574.75;4934912;28;20443;-86
2023/09/24 07:03:34;;;;;;;0.10;0.10;;;;;;;8.80;100.00;97570.84;4927452;28;20039;-87
2023/09/24 07:06:21;;;;;;;0.10;0.10;;;;;;;8.90;100.00;97578.41;4936322;28;20075;-84
2023/09/24 07:09:07;;;;;;;0.10;0.10;;;;;;;8.99;100.00;97571.00;4937230;28;20094;-86
2023/09/24 07:11:53;;;;;;;0.10;0.10;;;;;;;9.06;100.00;97571.78;4933884;28;20410;-85
2023/09/24 07:14:38;;;;;;;0.10;0.10;;;;;;;9.18;100.00;97570.06;4938134;28;20133;-85
2023/09/24 07:17:24;;;;;;;0.10;0.10;;;;;;;9.28;100.00;97559.78;4936476;28;20399;-86
2023/09/24 07:20:11;;;;;;;0.10;0.10;;;;;;;9.38;100.00;97570.00;4936685;28;20039;-86
2023/09/24 07:22:57;;;;;;;0.10;0.10;;;;;;;9.48;100.00;97571.16;4924030;28;20063;-86
2023/09/24 07:25:43;;;;;;;0.10;0.10;;;;;;;9.55;100.00;97572.97;4939581;28;20051;-87
2023/09/24 07:28:29;;;;;;;0.10;0.10;;;;;;;9.54;100.00;97569.47;4930174;28;20071;-85
2023/09/24 07:31:21;;;;;;;0.10;0.10;;;;;;;9.64;100.00;97575.16;4936074;28;20114;-86
2023/09/24 07:34:09;;;;;;;0.10;0.10;;;;;;;9.72;100.00;97574.09;4935774;28;20043;-86
2023/09/24 07:36:55;;;;;;;0.10;0.10;;;;;;;9.78;100.00;97576.72;4942387;28;20078;-86
2023/09/24 07:39:40;;;;;;;0.10;0.10;;;;;;;9.93;100.00;97578.28;4932615;28;20109;-87
2023/09/24 07:42:26;;;;;;;0.10;0.10;;;;;;;10.03;100.00;97584.75;4936149;28;20564;-86
2023/09/24 07:45:13;;;;;;;0.10;0.10;;;;;;;10.19;100.00;97583.41;4934978;28;20393;-86
2023/09/24 07:48:00;;;;;;;0.10;0.10;;;;;;;10.31;100.00;97572.84;4933988;28;20051;-86
2023/09/24 07:50:54;;;;;;;0.10;0.10;;;;;;;10.45;100.00;97571.69;4936425;28;20055;-86
2023/09/24 07:53:40;;;;;;;0.10;0.10;;;;;;;10.58;100.00;97570.72;4935800;28;20055;-87
2023/09/24 07:56:25;;;;;;;0.10;0.10;;;;;;;10.69;100.00;97571.88;4933199;28;20074;-87
2023/09/24 07:59:12;;;;;;;0.10;0.10;;;;;;;10.81;100.00;97573.56;4934117;28;20040;-85
2023/09/24 08:02:01;;;;;;;0.10;0.10;;;;;;;10.87;100.00;97575.38;4931628;28;20047;-86
2023/09/24 08:04:47;;;;;;;0.10;0.10;;;;;;;11.04;100.00;97580.13;4935892;28;20834;-87
2023/09/24 08:07:36;;;;;;;0.10;0.10;;;;;;;11.21;100.00;97581.19;4934237;28;20035;-86
2023/09/24 08:10:21;;;;;;;0.10;0.10;;;;;;;11.32;100.00;97575.06;4935652;28;20051;-86
2023/09/24 08:13:07;;;;;;;0.10;0.10;;;;;;;11.47;100.00;97568.47;4933631;28;20049;-87
2023/09/24 08:15:56;;;;;;;0.10;0.10;;;;;;;11.65;100.00;97571.09;4933357;28;20086;-86
2023/09/24 08:18:44;;;;;;;0.10;0.10;;;;;;;11.84;100.00;97563.84;4933714;28;20528;-86
2023/09/24 08:21:30;;;;;;;0.10;0.10;;;;;;;12.01;100.00;97564.00;4936915;28;20202;-86
2023/09/24 08:24:16;;;;;;;0.10;0.10;;;;;;;12.20;100.00;97576.25;4936330;28;20050;-86
2023/09/24 08:27:01;;;;;;;0.10;0.10;;;;;;;12.31;100.00;97583.53;4934611;28;20109;-85
2023/09/24 08:29:47;;;;;;;0.10;0.10;;;;;;;12.34;100.00;97582.25;4935728;28;20074;-86
2023/09/24 08:32:33;;;;;;;0.10;0.10;;;;;;;12.41;100.00;97583.75;4935288;28;20124;-86
2023/09/24 08:35:19;;;;;;;0.10;0.10;;;;;;;12.58;100.00;97586.56;4937425;28;20040;-87
2023/09/24 08:38:06;;;;;;;0.10;0.10;;;;;;;12.63;100.00;97580.50;4934075;28;20043;-84
2023/09/24 08:40:53;;;;;;;0.10;0.10;;;;;;;12.69;100.00;97582.25;4937342;28;20090;-86
2023/09/24 08:43:43;;;;;;;0.10;0.10;;;;;;;12.78;100.00;97581.66;4936193;28;20510;-84
2023/09/24 08:46:29;;;;;;;0.10;0.10;;;;;;;12.98;100.00;97593.88;4923180;28;20091;-84
2023/09/24 08:49:16;;;;;;;0.10;0.10;;;;;;;13.10;100.00;97584.75;4936732;28;20920;-85
2023/09/24 08:52:03;;;;;;;0.10;0.10;;;;;;;13.19;100.00;97590.59;4935875;28;20570;-85
2023/09/24 08:54:50;;;;;;;0.10;0.10;;;;;;;13.23;100.00;97582.88;4935312;28;20047;-84
2023/09/24 08:57:37;;;;;;;0.10;0.10;;;;;;;13.35;100.00;97580.97;4933387;28;20043;-85
2023/09/24 09:00:23;;;;;;;0.10;0.10;;;;;;;13.56;100.00;97569.56;4938783;28;20540;-84
2023/09/24 09:03:10;;;;;;;0.00;0.00;;;;;;;13.53;100.00;97571.91;4937241;28;20039;-84
2023/09/24 09:05:56;;;;;;;0.10;0.10;;;;;;;13.82;100.00;97573.53;4939053;28;20043;-85
2023/09/24 09:08:52;;;;;;;0.10;0.10;;;;;;;14.08;100.00;97558.63;4938149;28;20086;-85
2023/09/24 09:11:46;;;;;;;0.13;0.13;;;;;;;14.28;100.00;97568.13;4940866;28;20053;-86
2023/09/24 09:14:34;;;;;;;0.10;0.10;;;;;;;14.35;100.00;97558.81;4939358;28;20464;-87
2023/09/24 09:17:21;;;;;;;0.20;0.20;;;;;;;14.47;100.00;97556.88;4939509;28;20532;-85
2023/09/24 09:20:07;;;;;;;0.10;0.10;;;;;;;14.59;100.00;97564.03;4937773;28;20047;-86
2023/09/24 09:22:53;;;;;;;0.00;0.00;;;;;;;14.59;100.00;97566.75;4940045;28;20071;-85
2023/09/24 09:25:54;;;;;;;0.10;0.10;;;;;;;14.30;100.00;97564.09;4941805;28;20193;-84
2023/09/24 09:28:40;;;;;;;0.10;0.10;;;;;;;14.22;100.00;97557.25;4938286;28;20451;-85
2023/09/24 09:31:26;;;;;;;0.10;0.10;;;;;;;14.48;100.00;97555.81;4940470;28;20046;-85
2023/09/24 09:34:12;;;;;;;0.10;0.10;;;;;;;14.65;100.00;97558.50;4936569;28;20047;-85
2023/09/24 09:37:17;;;;;;;0.20;0.20;;;;;;;14.77;100.00;97561.06;4935984;28;20047;-86
2023/09/24 09:40:03;;;;;;;0.20;0.20;;;;;;;14.59;100.00;97556.78;4941239;28;20133;-85
2023/09/24 09:42:50;;;;;;;0.10;0.10;;;;;;;14.73;100.00;97549.16;4939641;28;20059;-86
2023/09/24 09:45:36;;;;;;;0.10;0.10;;;;;;;14.98;100.00;97551.38;4940229;28;20138;-85
2023/09/24 09:48:33;;;;;;;0.10;0.10;;;;;;;15.28;100.00;97557.16;4922728;28;20078;-86
2023/09/24 09:51:19;;;;;;;0.10;0.10;;;;;;;15.39;100.00;97562.66;4938271;28;20044;-85
2023/09/24 09:54:06;;;;;;;0.10;0.10;;;;;;;14.98;100.00;97557.59;4936432;28;20075;-85
2023/09/24 09:56:55;;;;;;;0.20;0.20;;;;;;;15.17;100.00;97551.88;4937620;28;20048;-85
2023/09/24 09:59:42;;;;;;;0.10;0.10;;;;;;;15.74;100.00;97555.00;4938952;28;20051;-86
2023/09/24 10:02:29;;;;;;;0.10;0.10;;;;;;;16.05;100.00;97552.56;4936241;28;20071;-86
2023/09/24 10:05:16;;;;;;;0.20;0.20;;;;;;;16.33;100.00;97552.25;4937043;28;20621;-84
2023/09/24 10:08:34;;;;;;;0.20;0.20;;;;;;;16.85;100.00;97546.16;4938098;28;20055;-85
2023/09/24 10:11:32;;;;;;;0.20;0.20;;;;;;;17.32;100.00;97550.69;4938562;28;20349;-85
2023/09/24 10:14:36;;;;;;;0.10;0.10;;;;;;;17.98;100.00;97544.66;4937562;28;20098;-86
2023/09/24 10:17:23;;;;;;;0.20;0.20;;;;;;;20.01;96.20;97529.69;4937171;28;20708;-86
2023/09/24 10:20:10;;;;;;;0.17;0.17;;;;;;;21.73;83.25;97530.88;4938545;28;20516;-86
2023/09/24 10:23:28;;;;;;;0.20;0.20;;;;;;;22.80;71.27;97535.38;4937568;28;20525;-84
2023/09/24 10:27:03;;;;;;;0.20;0.20;;;;;;;23.74;62.83;97539.56;4937817;28;20052;-85
2023/09/24 10:29:53;;;;;;;0.20;0.20;;;;;;;23.39;71.66;97536.44;4922273;28;20317;-85
2023/09/24 10:32:43;;;;;;;0.30;0.30;;;;;;;24.77;51.32;97522.31;4938160;28;20484;-85
2023/09/24 10:35:29;;;;;;;0.10;0.10;;;;;;;20.65;85.51;97536.75;4937357;28;20035;-88
2023/09/24 10:38:15;;;;;;;0.10;0.10;;;;;;;23.58;64.88;97528.94;4937314;28;20216;-86
2023/09/24 10:41:06;;;;;;;0.10;0.10;;;;;;;24.26;63.94;97518.09;4923960;28;20419;-86
2023/09/24 10:44:22;;;;;;;0.20;0.20;;;;;;;25.75;55.07;97522.78;4936596;28;20065;-85
2023/09/24 10:47:25;;;;;;;0.20;0.20;;;;;;;23.40;64.80;97527.13;4937218;28;20451;-87
2023/09/24 10:50:14;;;;;;;0.10;0.10;;;;;;;25.34;55.17;97527.84;4924673;28;20066;-86
2023/09/24 10:53:02;;;;;;;0.10;0.10;;;;;;;23.35;59.91;97519.06;4936801;28;20043;-85
2023/09/24 10:55:48;;;;;;;0.20;0.20;;;;;;;27.29;44.57;97513.81;4937791;28;20130;-86
2023/09/24 10:58:33;;;;;;;0.20;0.20;;;;;;;26.27;41.67;97516.50;4937240;28;20048;-85
2023/09/24 11:01:29;;;;;;;0.20;0.20;;;;;;;24.58;49.53;97506.91;4937625;28;20063;-87
2023/09/24 11:04:24;;;;;;;0.10;0.10;;;;;;;28.71;38.54;97499.06;4921967;28;20055;-87
2023/09/24 11:07:11;;;;;;;0.20;0.20;;;;;;;27.50;38.54;97494.63;4935492;28;20150;-86
2023/09/24 11:09:57;;;;;;;0.10;0.10;;;;;;;28.32;37.45;97497.72;4922399;28;20043;-86
2023/09/24 11:12:51;;;;;;;0.17;0.17;;;;;;;29.42;35.30;97501.44;4936426;28;20319;-87
2023/09/24 11:15:39;;;;;;;0.10;0.10;;;;;;;28.76;34.85;97504.38;4938001;28;20460;-87
2023/09/24 11:18:27;;;;;;;0.20;0.20;;;;;;;28.57;35.63;97499.41;4936844;28;20055;-87
2023/09/24 11:21:13;;;;;;;0.15;0.15;;;;;;;27.68;36.63;97492.56;4936655;28;20047;-87
2023/09/24 11:23:59;;;;;;;0.10;0.10;;;;;;;28.82;33.37;97494.75;4937177;28;20054;-87
2023/09/24 11:26:45;;;;;;;0.10;0.10;;;;;;;29.17;32.31;97497.09;4936951;28;20298;-85
2023/09/24 11:29:31;;;;;;;0.10;0.10;;;;;;;31.74;30.89;97491.13;4935932;28;20083;-88
2023/09/24 11:32:25;;;;;;;0.10;0.10;;;;;;;30.36;30.17;97500.31;4935608;28;20194;-88
2023/09/24 11:35:13;;;;;;;0.10;0.10;;;;;;;29.92;30.83;97496.66;4938377;28;20047;-87
2023/09/24 11:38:01;;;;;;;0.10;0.10;;;;;;;29.80;32.82;97494.72;4921146;28;20500;-85
2023/09/24 11:40:47;;;;;;;0.10;0.10;;;;;;;32.46;30.41;97471.31;4924101;28;20058;-85
2023/09/24 11:43:33;;;;;;;0.10;0.10;;;;;;;32.50;28.93;97480.47;4936374;28;20138;-86
2023/09/24 11:46:28;;;;;;;0.10;0.10;;;;;;;32.10;27.27;97480.84;4937957;28;20552;-85
2023/09/24 11:49:14;;;;;;;0.10;0.10;;;;;;;29.84;29.88;97479.09;4922587;28;20490;-85
2023/09/24 11:52:12;;;;;;;0.10;0.10;;;;;;;31.43;28.94;97480.94;4936405;28;20574;-86
2023/09/24 11:54:57;;;;;;;0.10;0.10;;;;;;;30.30;28.79;97473.31;4935788;28;20325;-85
2023/09/24 11:57:45;;;;;;;0.10;0.10;;;;;;;31.27;29.32;97464.41;4936295;28;20052;-87
2023/09/24 12:00:33;;;;;;;0.10;0.10;;;;;;;30.95;28.09;97463.59;4934049;28;20105;-85
2023/09/24 12:03:22;;;;;;;0.10;0.10;;;;;;;31.49;28.60;97460.16;4936587;28;20078;-87
2023/09/24 12:06:08;;;;;;;0.10;0.10;;;;;;;30.04;28.41;97468.22;4937844;28;20049;-88
2023/09/24 12:08:54;;;;;;;0.10;0.10;;;;;;;30.59;27.68;97461.09;4935822;28;20071;-84
2023/09/24 12:11:40;;;;;;;0.10;0.10;;;;;;;29.71;29.14;97454.66;4936182;28;20036;-86
2023/09/24 12:14:26;;;;;;;0.20;0.20;;;;;;;31.56;27.50;97448.47;4938439;28;20313;-85
2023/09/24 12:17:11;;;;;;;0.08;0.08;;;;;;;31.70;28.10;97446.00;4936568;28;20585;-84
2023/09/24 12:19:58;;;;;;;0.10;0.10;;;;;;;32.24;28.13;97447.91;4934477;28;20049;-85
2023/09/24 12:22:44;;;;;;;0.10;0.10;;;;;;;31.36;26.95;97450.38;4923430;28;20162;-85
2023/09/24 12:25:30;;;;;;;0.10;0.10;;;;;;;31.40;26.25;97440.22;4936847;28;20047;-85
2023/09/24 12:28:16;;;;;;;0.10;0.10;;;;;;;29.56;28.00;97447.91;4935879;28;20491;-85
2023/09/24 12:31:03;;;;;;;0.10;0.10;;;;;;;29.80;28.01;97441.53;4934422;28;20048;-85
2023/09/24 12:33:49;;;;;;;0.10;0.10;;;;;;;32.70;26.33;97432.16;4937638;28;20055;-85
2023/09/24 12:36:34;;;;;;;0.20;0.20;;;;;;;32.93;24.46;97446.03;4939819;28;20094;-87
2023/09/24 12:39:20;;;;;;;0.10;0.10;;;;;;;32.23;25.63;97446.31;4938827;28;20487;-86
2023/09/24 12:42:06;;;;;;;0.10;0.10;;;;;;;32.02;26.15;97437.59;4923676;28;20066;-86
2023/09/24 12:44:52;;;;;;;0.10;0.10;;;;;;;30.88;27.03;97441.31;4935188;28;20478;-86
2023/09/24 12:47:40;;;;;;;0.13;0.13;;;;;;;30.90;28.04;97429.94;4938602;28;20044;-87
2023/09/24 12:50:27;;;;;;;0.10;0.10;;;;;;;31.59;28.65;97431.13;4937996;28;20490;-86
2023/09/24 12:53:13;;;;;;;0.10;0.10;;;;;;;31.86;26.78;97430.16;4939215;28;20043;-86
2023/09/24 12:55:58;;;;;;;0.10;0.10;;;;;;;32.47;27.21;97425.81;4938285;28;20397;-86
2023/09/24 12:58:45;;;;;;;0.10;0.10;;;;;;;32.19;27.51;97426.06;4937675;28;20400;-86
2023/09/24 13:01:30;;;;;;;0.10;0.10;;;;;;;31.83;27.71;97422.59;4938584;28;20569;-86
2023/09/24 13:04:16;;;;;;;0.15;0.15;;;;;;;31.06;27.66;97426.00;4938134;28;20458;-86
2023/09/24 13:07:02;;;;;;;0.10;0.10;;;;;;;29.96;29.26;97425.81;4938088;28;20459;-86
2023/09/24 13:09:48;;;;;;;0.10;0.10;;;;;;;31.65;27.71;97423.34;4936737;28;20158;-85